createdAt,value
2022-07-25T00:02:11.721Z,6.80
2022-07-25T00:05:37.957Z,6.43
2022-07-25T00:09:01.059Z,6.55
2022-07-25T00:12:24.528Z,6.20
2022-07-25T00:15:46.289Z,5.88
2022-07-25T00:19:08.225Z,5.97
2022-07-25T00:22:30.089Z,5.20
2022-07-25T00:25:51.758Z,6.10
2022-07-25T00:29:13.635Z,5.30
2022-07-25T00:32:35.342Z,5.60
2022-07-25T00:35:57.365Z,5.50
2022-07-25T00:39:20.174Z,5.47
2022-07-25T00:42:42.028Z,5.75
2022-07-25T00:46:04.142Z,5.78
2022-07-25T00:49:26.364Z,5.53
2022-07-25T00:52:48.366Z,6.00
2022-07-25T00:56:10.431Z,5.18
2022-07-25T00:59:32.281Z,5.15
2022-07-25T01:02:54.237Z,5.30
2022-07-25T01:06:16.262Z,6.60
2022-07-25T01:09:38.321Z,5.30
2022-07-25T01:13:00.234Z,5.97
2022-07-25T01:16:22.150Z,5.95
2022-07-25T01:19:44.017Z,5.40
2022-07-25T01:23:05.808Z,5.85
2022-07-25T01:26:27.671Z,5.55
2022-07-25T01:29:49.462Z,6.25
2022-07-25T01:33:19.586Z,5.18
2022-07-25T01:36:41.349Z,5.65
2022-07-25T01:40:04.120Z,5.78
2022-07-25T01:43:26.943Z,6.50
2022-07-25T01:46:48.725Z,6.13
2022-07-25T01:50:10.945Z,6.05
2022-07-25T01:53:32.785Z,5.57
2022-07-25T01:56:54.827Z,5.78
2022-07-25T02:00:17.320Z,5.88
2022-07-25T02:03:39.235Z,5.68
2022-07-25T02:07:02.473Z,5.28
2022-07-25T02:10:24.310Z,5.90
2022-07-25T02:13:46.235Z,5.90
2022-07-25T02:17:08.321Z,5.93
2022-07-25T02:20:30.235Z,6.57
2022-07-25T02:23:52.162Z,7.00
2022-07-25T02:27:13.902Z,6.93
2022-07-25T02:30:35.889Z,6.65
2022-07-25T02:33:57.770Z,6.57
2022-07-25T02:37:19.578Z,6.10
2022-07-25T02:40:41.579Z,6.30
2022-07-25T02:44:04.473Z,6.10
2022-07-25T02:47:26.520Z,6.00
2022-07-25T02:50:48.312Z,6.18
2022-07-25T02:54:10.331Z,6.55
2022-07-25T02:57:38.371Z,6.03
2022-07-25T03:01:01.235Z,6.65
2022-07-25T03:04:25.250Z,6.43
2022-07-25T03:07:47.117Z,6.60
2022-07-25T03:11:08.946Z,6.38
2022-07-25T03:14:30.735Z,6.03
2022-07-25T03:17:52.424Z,6.10
2022-07-25T03:21:14.327Z,6.43
2022-07-25T03:24:36.226Z,6.28
2022-07-25T03:27:58.086Z,5.38
2022-07-25T03:31:19.853Z,6.22
2022-07-25T03:34:41.601Z,5.97
2022-07-25T03:38:03.771Z,5.70
2022-07-25T03:41:27.777Z,5.47
2022-07-25T03:44:49.867Z,6.28
2022-07-25T03:48:17.470Z,6.22
2022-07-25T03:51:39.185Z,5.68
2022-07-25T03:55:00.948Z,5.80
2022-07-25T03:58:22.811Z,6.43
2022-07-25T04:01:51.408Z,6.18
2022-07-25T04:05:13.279Z,5.53
2022-07-25T04:08:35.143Z,5.78
2022-07-25T04:11:56.874Z,5.75
2022-07-25T04:15:18.682Z,5.53
2022-07-25T04:18:41.515Z,5.97
2022-07-25T04:22:03.298Z,5.50
2022-07-25T04:25:25.074Z,5.93
2022-07-25T04:28:47.225Z,6.00
2022-07-25T04:32:09.116Z,5.45
2022-07-25T04:35:30.944Z,5.65
2022-07-25T04:38:53.545Z,6.10
2022-07-25T04:42:15.381Z,5.68
2022-07-25T04:45:37.153Z,5.75
2022-07-25T04:48:58.976Z,5.95
2022-07-25T04:52:20.799Z,5.68
2022-07-25T04:55:42.505Z,5.88
2022-07-25T04:59:06.695Z,6.03
2022-07-25T05:02:28.868Z,5.70
2022-07-25T05:05:51.172Z,5.63
2022-07-25T05:09:12.921Z,5.80
2022-07-25T05:12:34.593Z,6.07
2022-07-25T05:15:56.421Z,5.38
2022-07-25T05:19:18.202Z,5.43
2022-07-25T05:22:40.107Z,5.80
2022-07-25T05:26:02.246Z,5.80
2022-07-25T05:29:23.931Z,5.53
2022-07-25T05:32:45.677Z,6.07
2022-07-25T05:36:08.632Z,5.78
2022-07-25T05:39:30.432Z,5.85
2022-07-25T05:42:52.351Z,5.97
2022-07-25T05:46:14.506Z,5.78
2022-07-25T05:49:36.809Z,5.65
2022-07-25T05:52:58.597Z,6.18
2022-07-25T05:56:20.991Z,5.63
2022-07-25T05:59:42.791Z,5.95
2022-07-25T06:03:05.084Z,5.93
2022-07-25T06:06:27.048Z,6.28
2022-07-25T06:09:48.863Z,5.47
2022-07-25T06:13:10.571Z,6.03
2022-07-25T06:16:32.398Z,6.40
2022-07-25T06:19:54.159Z,6.10
2022-07-25T06:23:16.770Z,5.95
2022-07-25T06:26:38.790Z,5.90
2022-07-25T06:30:00.603Z,5.60
2022-07-25T06:33:22.597Z,6.03
2022-07-25T06:36:44.423Z,5.53
2022-07-25T06:40:07.059Z,5.85
2022-07-25T06:43:28.879Z,5.85
2022-07-25T06:46:52.777Z,6.32
2022-07-25T06:50:21.632Z,5.40
2022-07-25T06:53:43.660Z,5.82
2022-07-25T06:57:05.786Z,6.45
2022-07-25T07:00:27.773Z,5.65
2022-07-25T07:03:49.906Z,5.80
2022-07-25T07:07:11.735Z,5.13
2022-07-25T07:10:33.543Z,5.38
2022-07-25T07:13:58.384Z,6.03
2022-07-25T07:17:22.120Z,5.95
2022-07-25T07:20:44.139Z,5.90
2022-07-25T07:24:22.115Z,5.53
2022-07-25T07:27:47.620Z,5.50
2022-07-25T07:31:17.688Z,5.55
2022-07-25T07:34:40.018Z,5.43
2022-07-25T07:38:02.928Z,5.68
2022-07-25T07:41:24.752Z,6.03
2022-07-25T07:44:46.589Z,5.90
2022-07-25T07:48:08.520Z,5.57
2022-07-25T07:51:30.621Z,6.07
2022-07-25T07:55:11.031Z,6.38
2022-07-25T07:58:32.823Z,5.93
2022-07-25T08:01:54.733Z,5.93
2022-07-25T08:05:25.495Z,6.05
2022-07-25T08:08:47.376Z,5.63
2022-07-25T08:12:09.136Z,5.80
2022-07-25T08:15:30.924Z,6.40
2022-07-25T08:18:52.855Z,6.68
2022-07-25T08:22:14.664Z,5.82
2022-07-25T08:25:37.019Z,5.75
2022-07-25T08:29:17.479Z,5.43
2022-07-25T08:32:59.776Z,5.63
2022-07-25T08:36:21.598Z,6.28
2022-07-25T08:39:43.466Z,6.28
2022-07-25T08:43:06.344Z,6.40
2022-07-25T08:46:30.144Z,5.63
2022-07-25T08:49:52.067Z,5.43
2022-07-25T08:56:57.511Z,6.07
2022-07-25T09:00:26.314Z,6.10
2022-07-25T09:03:48.088Z,6.30
2022-07-25T09:07:09.941Z,6.15
2022-07-25T09:10:32.730Z,5.93
2022-07-25T09:14:08.612Z,6.13
2022-07-25T09:17:30.933Z,5.60
2022-07-25T09:20:55.111Z,5.82
2022-07-25T09:24:18.651Z,6.00
2022-07-25T09:27:40.469Z,5.82
2022-07-25T09:31:02.385Z,5.60
2022-07-25T09:34:42.308Z,6.00
2022-07-25T09:38:15.507Z,5.45
2022-07-25T09:41:39.831Z,5.15
2022-07-25T09:45:12.420Z,5.32
2022-07-25T09:48:35.716Z,5.25
2022-07-25T09:51:57.429Z,5.05
2022-07-25T09:55:20.389Z,5.45
2022-07-25T09:58:42.115Z,5.50
2022-07-25T10:02:17.763Z,5.25
2022-07-25T10:06:03.727Z,5.38
2022-07-25T10:09:25.665Z,5.50
2022-07-25T10:13:07.824Z,5.43
2022-07-25T10:16:31.493Z,5.43
2022-07-25T10:19:58.561Z,5.47
2022-07-25T10:23:29.550Z,5.32
2022-07-25T10:26:53.062Z,6.30
2022-07-25T10:30:23.489Z,5.43
2022-07-25T10:33:49.602Z,5.63
2022-07-25T10:37:14.834Z,5.68
2022-07-25T10:40:44.953Z,5.55
2022-07-25T10:44:15.100Z,5.32
2022-07-25T10:47:42.898Z,7.18
2022-07-25T10:51:09.423Z,5.65
2022-07-25T10:54:36.414Z,5.68
2022-07-25T10:58:22.187Z,6.18
2022-07-25T11:01:44.790Z,5.18
2022-07-25T11:05:06.904Z,5.75
2022-07-25T11:08:33.024Z,6.28
2022-07-25T11:11:57.859Z,5.90
2022-07-25T11:15:26.352Z,5.18
2022-07-25T11:18:49.395Z,5.00
2022-07-25T11:22:11.919Z,6.10
2022-07-25T11:25:33.716Z,6.03
2022-07-25T11:28:55.446Z,6.35
2022-07-25T11:32:17.549Z,6.05
2022-07-25T11:35:39.450Z,6.57
2022-07-25T11:39:01.278Z,5.78
2022-07-25T11:42:23.430Z,6.53
2022-07-25T11:45:56.917Z,6.07
2022-07-25T11:49:18.738Z,6.15
2022-07-25T11:52:45.770Z,6.43
2022-07-25T11:56:42.381Z,6.72
2022-07-25T12:00:11.397Z,5.78
2022-07-25T12:03:38.034Z,6.28
2022-07-25T12:07:05.893Z,6.57
2022-07-25T12:10:35.235Z,7.55
2022-07-25T12:14:04.615Z,5.85
2022-07-25T12:17:26.358Z,6.13
2022-07-25T12:20:48.039Z,5.82
2022-07-25T12:24:09.833Z,5.72
2022-07-25T12:27:31.904Z,4.95
2022-07-25T12:30:56.760Z,5.10
2022-07-25T12:34:18.862Z,4.38
2022-07-25T12:37:41.476Z,4.88
2022-07-25T12:41:05.483Z,6.63
2022-07-25T12:44:27.317Z,4.47
2022-07-25T12:47:49.341Z,4.03
2022-07-25T12:51:12.370Z,4.75
2022-07-25T12:54:34.507Z,3.42
2022-07-25T12:57:56.405Z,2.92
2022-07-25T13:01:18.237Z,3.10
2022-07-25T13:04:40.193Z,2.88
2022-07-25T13:08:04.979Z,2.78
2022-07-25T13:11:26.763Z,2.55
2022-07-25T13:14:48.600Z,2.22
2022-07-25T13:18:10.408Z,2.35
2022-07-25T13:21:32.241Z,1.92
2022-07-25T13:24:54.276Z,2.30
2022-07-25T13:28:16.993Z,1.88
2022-07-25T13:31:39.496Z,1.95
2022-07-25T13:35:01.563Z,1.73
2022-07-25T13:38:23.299Z,1.85
2022-07-25T13:41:45.195Z,2.67
2022-07-25T13:45:07.609Z,1.70
2022-07-25T13:48:31.131Z,2.42
2022-07-25T13:51:53.577Z,2.58
2022-07-25T13:55:15.436Z,1.70
2022-07-25T13:58:37.338Z,1.65
2022-07-25T14:01:59.695Z,2.10
2022-07-25T14:05:21.522Z,1.60
2022-07-25T14:08:43.390Z,1.48
2022-07-25T14:12:05.474Z,1.27
2022-07-25T14:15:28.548Z,1.20
2022-07-25T14:18:50.758Z,1.40
2022-07-25T14:22:12.664Z,1.40
2022-07-25T14:25:34.520Z,2.08
2022-07-25T14:28:56.391Z,1.40
2022-07-25T14:32:18.385Z,1.15
2022-07-25T14:35:40.131Z,1.00
2022-07-25T14:39:03.159Z,1.40
2022-07-25T14:42:25.382Z,1.30
2022-07-25T14:45:47.170Z,1.42
2022-07-25T14:49:14.149Z,1.17
2022-07-25T14:52:36.115Z,1.30
2022-07-25T14:55:58.149Z,1.00
2022-07-25T14:59:20.176Z,1.70
2022-07-25T15:02:41.874Z,1.30
2022-07-25T15:06:07.033Z,1.38
2022-07-25T15:09:28.939Z,1.75
2022-07-25T15:13:02.312Z,1.23
2022-07-25T15:16:34.378Z,1.58
2022-07-25T15:19:56.347Z,1.58
2022-07-25T15:23:18.363Z,1.60
2022-07-25T15:26:40.376Z,1.00
2022-07-25T15:30:02.160Z,1.08
2022-07-25T15:33:24.063Z,1.23
2022-07-25T15:36:45.958Z,0.90
2022-07-25T15:40:08.827Z,1.10
2022-07-25T15:43:30.624Z,1.50
2022-07-25T15:46:52.615Z,1.40
2022-07-25T15:50:14.799Z,1.40
2022-07-25T15:53:36.539Z,1.33
2022-07-25T15:56:58.563Z,1.48
2022-07-25T16:00:20.984Z,1.10
2022-07-25T16:03:43.450Z,1.00
2022-07-25T16:07:05.508Z,1.20
2022-07-25T16:10:28.739Z,1.80
2022-07-25T16:13:51.120Z,0.90
2022-07-25T16:17:12.800Z,1.35
2022-07-25T16:20:34.652Z,1.40
2022-07-25T16:23:56.425Z,1.75
2022-07-25T16:27:18.587Z,1.20
2022-07-25T16:30:40.567Z,1.10
2022-07-25T16:34:02.352Z,1.20
2022-07-25T16:37:24.362Z,1.00
2022-07-25T16:40:46.076Z,1.40
2022-07-25T16:44:07.911Z,1.00
2022-07-25T16:47:29.670Z,1.27
2022-07-25T16:50:51.590Z,1.42
2022-07-25T16:54:13.723Z,1.30
2022-07-25T16:57:37.822Z,1.50
2022-07-25T17:00:59.543Z,1.30
2022-07-25T17:04:21.471Z,1.13
2022-07-25T17:07:43.258Z,1.30
2022-07-25T17:11:05.909Z,0.95
2022-07-25T17:14:30.147Z,1.00
2022-07-25T17:17:52.338Z,0.88
2022-07-25T17:21:16.637Z,1.23
2022-07-25T17:24:39.113Z,1.40
2022-07-25T17:28:00.818Z,1.17
2022-07-25T17:31:24.191Z,1.05
2022-07-25T17:34:46.989Z,1.55
2022-07-25T17:38:10.670Z,1.30
2022-07-25T17:41:32.833Z,1.60
2022-07-25T17:44:54.753Z,1.40
2022-07-25T17:48:16.611Z,1.30
2022-07-25T17:51:38.337Z,1.02
2022-07-25T17:55:00.210Z,1.33
2022-07-25T17:58:22.222Z,1.45
2022-07-25T18:01:44.038Z,1.23
2022-07-25T18:05:06.276Z,1.27
2022-07-25T18:08:32.927Z,1.27
2022-07-25T18:11:54.801Z,1.40
2022-07-25T18:15:16.875Z,1.70
2022-07-25T18:18:39.614Z,1.13
2022-07-25T18:22:01.347Z,1.42
2022-07-25T18:25:23.158Z,1.30
2022-07-25T18:28:45.425Z,1.30
2022-07-25T18:32:07.492Z,2.05
2022-07-25T18:35:29.413Z,1.95
2022-07-25T18:38:53.689Z,1.50
2022-07-25T18:42:15.398Z,1.30
2022-07-25T18:45:37.813Z,1.55
2022-07-25T18:49:01.146Z,1.65
2022-07-25T18:52:23.441Z,1.60
2022-07-25T18:55:45.992Z,1.30
2022-07-25T18:59:08.191Z,2.13
2022-07-25T19:02:31.027Z,1.67
2022-07-25T19:05:54.208Z,1.60
2022-07-25T19:09:16.027Z,1.60
2022-07-25T19:12:38.388Z,1.48
2022-07-25T19:16:01.623Z,1.48
2022-07-25T19:19:23.971Z,2.47
2022-07-25T19:22:45.840Z,1.55
2022-07-25T19:26:07.879Z,1.75
2022-07-25T19:29:29.679Z,2.00
2022-07-25T19:32:52.221Z,1.30
2022-07-25T19:36:14.263Z,2.00
2022-07-25T19:39:36.107Z,1.38
2022-07-25T19:43:00.084Z,2.17
2022-07-25T19:46:22.346Z,1.55
2022-07-25T19:49:44.302Z,1.73
2022-07-25T19:53:06.302Z,1.40
2022-07-25T19:56:28.167Z,1.70
2022-07-25T19:59:49.982Z,1.75
2022-07-25T20:03:11.815Z,1.70
2022-07-25T20:06:35.478Z,1.25
2022-07-25T20:09:57.193Z,1.90
2022-07-25T20:13:20.135Z,1.77
2022-07-25T20:16:42.069Z,1.65
2022-07-25T20:20:06.043Z,1.60
2022-07-25T20:23:27.986Z,1.90
2022-07-25T20:26:49.859Z,1.55
2022-07-25T20:30:13.252Z,1.90
2022-07-25T20:33:35.008Z,2.03
2022-07-25T20:36:56.842Z,1.70
2022-07-25T20:40:19.376Z,1.65
2022-07-25T20:43:42.735Z,1.60
2022-07-25T20:47:04.596Z,1.52
2022-07-25T20:50:26.409Z,1.60
2022-07-25T20:53:53.279Z,1.70
2022-07-25T20:57:15.430Z,1.90
2022-07-25T21:00:37.427Z,1.73
2022-07-25T21:03:59.280Z,1.30
2022-07-25T21:07:21.110Z,1.63
2022-07-25T21:10:43.257Z,1.65
2022-07-25T21:14:06.435Z,1.83
2022-07-25T21:17:28.514Z,1.70
2022-07-25T21:20:50.384Z,1.77
2022-07-25T21:24:12.286Z,1.75
2022-07-25T21:27:34.502Z,2.47
2022-07-25T21:30:56.879Z,1.77
2022-07-25T21:34:18.722Z,1.85
2022-07-25T21:37:41.844Z,1.60
2022-07-25T21:41:03.642Z,1.60
2022-07-25T21:44:25.738Z,1.65
2022-07-25T21:47:47.780Z,1.70
2022-07-25T21:51:10.539Z,1.63
2022-07-25T21:54:42.665Z,1.88
2022-07-25T21:58:04.664Z,1.90
2022-07-25T22:01:26.440Z,1.60
2022-07-25T22:04:48.393Z,1.55
2022-07-25T22:08:10.179Z,1.85
2022-07-25T22:11:42.643Z,2.00
2022-07-25T22:15:12.096Z,2.03
2022-07-25T22:18:34.165Z,2.10
2022-07-25T22:21:55.884Z,1.52
2022-07-25T22:25:17.674Z,1.77
2022-07-25T22:28:39.460Z,1.33
2022-07-25T22:32:01.365Z,1.38
2022-07-25T22:35:23.263Z,2.00
2022-07-25T22:38:45.176Z,1.98
2022-07-25T22:42:07.056Z,1.58
2022-07-25T22:45:29.081Z,1.52
2022-07-25T22:48:50.931Z,1.98
2022-07-25T22:52:13.498Z,1.70
2022-07-25T22:55:35.212Z,1.50
2022-07-25T22:58:57.494Z,2.00
2022-07-25T23:02:19.440Z,1.88
2022-07-25T23:05:41.179Z,1.92
2022-07-25T23:09:03.584Z,2.60
2022-07-25T23:12:25.351Z,2.80
2022-07-25T23:15:51.092Z,3.40
2022-07-25T23:19:13.301Z,3.33
2022-07-25T23:22:35.308Z,1.80
2022-07-25T23:25:57.049Z,1.55
2022-07-25T23:29:18.843Z,1.50
2022-07-25T23:32:40.715Z,1.63
2022-07-25T23:36:02.617Z,1.85
2022-07-25T23:39:24.816Z,1.40
2022-07-25T23:42:46.706Z,1.20
2022-07-25T23:46:09.240Z,1.63
2022-07-25T23:49:30.980Z,1.30
2022-07-25T23:52:52.699Z,2.17
2022-07-25T23:56:20.225Z,1.15
2022-07-25T23:59:42.683Z,1.00
